Time;durP1;ratioP1;P1;durP2;ratioP2;P2;SDS_P1;SDS_P2;PMS_P1;PMS_P2;Temp;Humidity;BMP_temperature;BMP_pressure;BME280_temperature;BME280_humidity;BME280_pressure;Samples;Min_cycle;Max_cycle;Signal;HPM_P1;HPM_P2
2023/09/17 00:01:53;;;;;;;1.40;1.30;;;;;;;19.53;nan;55395.59;5092214;28;20181;-70
2023/09/17 00:04:18;;;;;;;2.55;1.55;;;;;;;19.40;nan;55380.13;5099428;28;20686;-70
2023/09/17 00:06:44;;;;;;;0.88;0.88;;;;;;;19.66;nan;55507.81;5091958;28;20173;-70
2023/09/17 00:09:09;;;;;;;1.25;1.17;;;;;;;19.66;nan;55230.97;5106939;27;20181;-70
2023/09/17 00:11:35;;;;;;;1.02;0.93;;;;;;;19.68;nan;55421.91;5091162;28;20259;-70
2023/09/17 00:14:00;;;;;;;1.35;1.23;;;;;;;19.69;nan;55940.50;5099404;28;20733;-70
2023/09/17 00:16:31;;;;;;;1.25;1.10;;;;;;;19.57;nan;54608.16;5091183;28;20185;-70
2023/09/17 00:18:59;;;;;;;1.27;1.17;;;;;;;19.44;nan;53804.28;5095980;28;20179;-70
2023/09/17 00:21:25;;;;;;;1.00;1.00;;;;;;;19.56;nan;54689.94;5092723;28;20217;-70
2023/09/17 00:23:50;;;;;;;1.10;1.00;;;;;;;19.56;nan;54775.28;5092154;28;20686;-70
2023/09/17 00:26:16;;;;;;;1.63;1.27;;;;;;;19.61;nan;54332.91;5099551;28;20233;-70
2023/09/17 00:28:41;;;;;;;1.33;1.23;;;;;;;19.45;nan;54034.88;5092011;28;20196;-70
2023/09/17 00:31:06;;;;;;;1.17;1.00;;;;;;;19.64;nan;53699.72;5107159;28;20215;-70
2023/09/17 00:33:32;;;;;;;1.02;1.02;;;;;;;19.58;nan;52879.28;5091868;28;20663;-70
2023/09/17 00:35:57;;;;;;;2.35;1.27;;;;;;;19.51;nan;52223.66;5081929;28;20209;-70
2023/09/17 00:38:23;;;;;;;1.25;1.15;;;;;;;19.47;nan;50651.50;5091883;28;20182;-70
2023/09/17 00:40:48;;;;;;;1.00;1.00;;;;;;;19.54;nan;47573.00;5110645;28;20177;-70
2023/09/17 00:43:14;;;;;;;1.48;1.38;;;;;;;19.41;nan;46596.34;5091557;28;20766;-70
2023/09/17 00:45:42;;;;;;;2.90;1.95;;;;;;;18.66;nan;47483.94;5109373;27;20664;-70
2023/09/17 00:48:08;;;;;;;1.67;1.55;;;;;;;19.63;nan;46556.03;5091322;28;20636;-71
2023/09/17 00:50:34;;;;;;;1.50;1.30;;;;;;;19.59;nan;45990.03;5099072;28;20264;-70
2023/09/17 00:53:00;;;;;;;1.33;1.20;;;;;;;19.56;nan;42844.50;5091499;28;20264;-70
2023/09/17 00:55:29;;;;;;;1.30;1.10;;;;;;;19.49;nan;37765.31;5098740;28;20691;-70
2023/09/17 00:57:56;;;;;;;1.48;1.23;;;;;;;19.51;nan;36650.53;5105190;28;20178;-70
2023/09/17 01:00:23;;;;;;;0.70;0.70;;;;;;;19.53;nan;36322.34;5095730;28;20677;-71
2023/09/17 01:02:50;;;;;;;1.42;1.33;;;;;;;19.37;nan;34008.22;5094535;28;20655;-70
2023/09/17 01:05:16;;;;;;;1.40;1.20;;;;;;;19.46;nan;30068.50;5106310;28;20222;-70
2023/09/17 01:07:42;;;;;;;1.73;1.10;;;;;;;19.35;nan;30719.19;5094149;28;20185;-70
2023/09/17 01:10:08;;;;;;;1.80;1.30;;;;;;;19.40;nan;28750.78;5104349;28;20297;-71
2023/09/17 01:12:35;;;;;;;1.58;1.00;;;;;;;19.35;nan;25793.72;5089761;28;20234;-71
2023/09/17 01:15:09;;;;;;;1.73;1.40;;;;;;;19.35;nan;25137.28;5104977;28;20199;-71
2023/09/17 01:17:34;;;;;;;0.90;0.90;;;;;;;19.37;nan;25794.53;5093105;28;20560;-70
2023/09/17 01:20:00;;;;;;;1.40;1.30;;;;;;;19.20;nan;24801.63;5085319;28;20180;-70
2023/09/17 01:22:44;;;;;;;1.48;1.27;;;;;;;19.44;nan;25469.91;5097370;28;20260;-71
2023/09/17 01:25:35;;;;;;;1.38;1.27;;;;;;;19.42;nan;24157.13;5092904;28;20697;-71
2023/09/17 01:28:02;;;;;;;1.33;1.23;;;;;;;19.36;nan;23498.19;5093772;28;20558;-71
2023/09/17 01:30:27;;;;;;;1.20;1.10;;;;;;;19.11;nan;19881.91;5111942;28;20195;-71
2023/09/17 01:32:53;;;;;;;2.40;1.48;;;;;;;19.13;nan;21192.97;5112199;28;20675;-71
2023/09/17 01:35:20;;;;;;;1.90;1.17;;;;;;;19.38;nan;21860.03;5111567;28;20284;-71
2023/09/17 01:38:00;;;;;;;1.75;1.65;;;;;;;19.16;nan;21521.69;5111851;28;20175;-71
2023/09/17 01:40:25;;;;;;;1.40;1.30;;;;;;;19.03;nan;18569.16;5111669;28;20175;-71
2023/09/17 01:42:52;;;;;;;1.33;1.23;;;;;;;19.22;nan;17268.06;5111935;28;20161;-71
2023/09/17 01:45:18;;;;;;;1.88;1.65;;;;;;;19.00;nan;14970.59;5111883;28;20196;-71
2023/09/17 01:47:46;;;;;;;2.80;1.30;;;;;;;19.17;nan;13669.19;5111677;28;20255;-72
2023/09/17 01:50:15;;;;;;;2.03;1.35;;;;;;;19.22;nan;14651.63;5111656;28;20177;-71
2023/09/17 01:52:43;;;;;;;1.77;1.23;;;;;;;19.03;nan;14644.63;5111124;28;20165;-71
2023/09/17 01:55:09;;;;;;;2.40;1.30;;;;;;;19.24;nan;16614.50;5111679;28;20211;-71
2023/09/17 01:57:34;;;;;;;1.83;1.70;;;;;;;19.16;nan;15957.41;5114969;28;20165;-71
2023/09/17 02:00:00;;;;;;;1.45;1.35;;;;;;;19.26;nan;14980.03;5115504;28;20160;-71
2023/09/17 02:02:26;;;;;;;1.52;1.33;;;;;;;19.34;nan;15964.22;5115457;28;20587;-71
2023/09/17 02:04:52;;;;;;;1.83;1.35;;;;;;;19.30;nan;15962.53;5114968;28;20184;-71
2023/09/17 02:07:17;;;;;;;1.95;1.65;;;;;;;19.12;nan;15955.88;5113042;28;20179;-71
2023/09/17 02:09:43;;;;;;;1.10;1.00;;;;;;;19.33;nan;15636.72;5099016;28;20662;-71
2023/09/17 02:12:08;;;;;;;2.25;1.90;;;;;;;19.16;nan;16284.28;5107933;28;20237;-71
2023/09/17 02:14:34;;;;;;;1.27;1.15;;;;;;;19.15;nan;16283.91;5094513;28;20229;-72
2023/09/17 02:16:59;;;;;;;1.90;1.27;;;;;;;19.37;nan;15965.19;5106003;28;20172;-69
2023/09/17 02:19:25;;;;;;;1.70;1.40;;;;;;;19.23;nan;16941.28;5113280;28;20668;-70
2023/09/17 02:21:52;;;;;;;1.98;1.42;;;;;;;19.36;nan;16291.97;5113391;28;20183;-70
2023/09/17 02:24:18;;;;;;;1.60;1.50;;;;;;;19.36;nan;15964.81;5112993;28;20176;-70
2023/09/17 02:26:44;;;;;;;1.70;1.45;;;;;;;19.25;nan;15633.56;5112862;28;20165;-70
2023/09/17 02:29:09;;;;;;;1.67;1.35;;;;;;;19.23;nan;15633.00;5094823;28;20605;-70
2023/09/17 02:31:35;;;;;;;3.00;1.40;;;;;;;19.22;nan;16940.88;5094762;28;20192;-70
2023/09/17 02:34:00;;;;;;;1.88;1.70;;;;;;;19.35;nan;16946.03;5114051;28;20244;-70
2023/09/17 02:36:25;;;;;;;2.70;1.42;;;;;;;19.36;nan;15965.00;5114246;28;20279;-70
2023/09/17 02:38:51;;;;;;;2.42;2.08;;;;;;;19.25;nan;15960.63;5114703;28;20239;-70
2023/09/17 02:41:16;;;;;;;2.75;1.90;;;;;;;19.36;nan;16292.16;5114839;28;20169;-70
2023/09/17 02:43:42;;;;;;;1.17;1.08;;;;;;;19.31;nan;14327.66;5114426;28;20168;-70
2023/09/17 02:46:08;;;;;;;2.08;1.92;;;;;;;19.31;nan;13347.09;5114554;28;20674;-70
2023/09/17 02:48:34;;;;;;;2.17;1.80;;;;;;;19.30;nan;14000.53;5114566;28;20247;-71
2023/09/17 02:51:01;;;;;;;1.52;1.40;;;;;;;19.28;nan;13019.06;5095906;28;20531;-70
2023/09/17 02:53:27;;;;;;;1.60;1.40;;;;;;;19.26;nan;12365.00;5114376;28;20263;-70
2023/09/17 02:55:54;;;;;;;2.22;1.63;;;;;;;19.11;nan;13667.13;5114432;28;20719;-70
2023/09/17 02:58:20;;;;;;;1.40;1.30;;;;;;;19.19;nan;11709.25;5114530;28;20174;-70
2023/09/17 03:00:46;;;;;;;1.80;1.50;;;;;;;19.11;nan;10074.31;5114271;28;20605;-70
2023/09/17 03:03:11;;;;;;;1.35;1.20;;;;;;;19.09;nan;8768.16;5114219;28;20204;-71
2023/09/17 03:05:39;;;;;;;2.10;1.70;;;;;;;18.93;nan;8764.09;5113715;28;20180;-70
2023/09/17 03:08:09;;;;;;;1.83;1.38;;;;;;;18.80;nan;7130.38;5112778;28;20168;-70
2023/09/17 03:10:41;;;;;;;3.75;1.92;;;;;;;18.73;nan;6477.00;5113959;28;20223;-70
2023/09/17 03:13:14;;;;;;;0.75;0.75;;;;;;;18.86;nan;5502.09;5114007;28;20153;-70
2023/09/17 03:15:40;;;;;;;1.30;1.20;;;;;;;18.90;nan;4525.44;5113639;28;20694;-70
2023/09/17 03:18:05;;;;;;;1.27;1.10;;;;;;;18.75;nan;5499.91;5113740;28;20204;-70
2023/09/17 03:20:33;;;;;;;1.70;1.60;;;;;;;18.78;nan;5500.44;5113921;28;20609;-70
2023/09/17 03:23:04;;;;;;;1.83;1.48;;;;;;;18.77;nan;5500.34;5102120;28;20185;-70
2023/09/17 03:25:32;;;;;;;1.23;1.13;;;;;;;18.75;nan;6151.47;5107078;28;20191;-70
2023/09/17 03:27:59;;;;;;;1.60;1.50;;;;;;;18.87;nan;6154.09;5096853;28;20177;-70
2023/09/17 03:30:25;;;;;;;1.80;1.38;;;;;;;18.95;nan;7460.09;5094505;28;20177;-69
2023/09/17 03:32:51;;;;;;;1.17;1.08;;;;;;;18.80;nan;8434.56;5103423;28;20213;-70
2023/09/17 03:35:16;;;;;;;1.42;1.33;;;;;;;18.75;nan;9411.84;5092508;28;20240;-70
2023/09/17 03:37:43;;;;;;;1.20;1.10;;;;;;;18.96;nan;11049.31;5100064;28;20187;-70
2023/09/17 03:40:11;;;;;;;1.50;1.40;;;;;;;18.81;nan;13983.72;5092563;28;20177;-69
2023/09/17 03:42:38;;;;;;;1.48;1.15;;;;;;;18.90;nan;15947.75;5110373;28;20177;-70
2023/09/17 03:45:09;;;;;;;1.40;1.30;;;;;;;18.83;nan;16925.66;5092737;28;20232;-70
2023/09/17 03:47:41;;;;;;;1.75;1.58;;;;;;;18.47;nan;17238.44;5091775;28;20173;-70
2023/09/17 03:50:13;;;;;;;2.65;1.63;;;;;;;18.82;nan;18233.38;5095625;28;20176;-70
2023/09/17 03:52:42;;;;;;;1.13;1.00;;;;;;;18.96;nan;18566.41;5102266;28;20222;-70
2023/09/17 03:55:08;;;;;;;1.27;1.17;;;;;;;18.96;nan;18893.63;5099297;28;20212;-70
2023/09/17 03:57:36;;;;;;;1.90;1.52;;;;;;;18.83;nan;19215.47;5099343;28;20571;-70
2023/09/17 04:00:12;;;;;;;0.80;0.80;;;;;;;18.77;nan;18885.50;5091707;28;20188;-70
2023/09/17 04:02:38;;;;;;;1.15;1.15;;;;;;;18.95;nan;19875.03;5083374;28;20267;-70
2023/09/17 04:05:14;;;;;;;2.28;1.70;;;;;;;18.81;nan;19214.59;5091325;28;20330;-70
2023/09/17 04:07:41;;;;;;;1.25;1.17;;;;;;;18.94;nan;18892.75;5090891;28;20189;-70
2023/09/17 04:10:07;;;;;;;2.08;0.95;;;;;;;18.84;nan;18888.50;5091245;28;20217;-70
2023/09/17 04:12:34;;;;;;;1.10;1.08;;;;;;;18.79;nan;19213.72;5091701;28;20184;-70
2023/09/17 04:15:00;;;;;;;1.33;1.20;;;;;;;18.72;nan;18229.44;5076486;28;20201;-70
2023/09/17 04:17:26;;;;;;;1.13;1.02;;;;;;;18.85;nan;18234.84;5108270;28;20257;-71
2023/09/17 04:19:52;;;;;;;0.90;0.90;;;;;;;18.96;nan;18893.63;5091194;28;20184;-71
2023/09/17 04:22:18;;;;;;;1.15;1.13;;;;;;;18.91;nan;16928.81;5098914;28;20644;-71
2023/09/17 04:24:44;;;;;;;0.95;0.95;;;;;;;18.89;nan;18563.44;5090675;28;20246;-71
2023/09/17 04:27:09;;;;;;;1.23;1.13;;;;;;;18.79;nan;21832.19;5091572;28;20216;-71
2023/09/17 04:29:36;;;;;;;1.30;1.20;;;;;;;18.79;nan;23797.38;5109101;28;20176;-71
2023/09/17 04:32:01;;;;;;;0.95;0.95;;;;;;;18.64;nan;28378.28;5093051;28;20721;-71
2023/09/17 04:34:27;;;;;;;1.48;1.38;;;;;;;18.80;nan;28387.63;5095925;28;20216;-70
2023/09/17 04:36:52;;;;;;;0.95;0.95;;;;;;;18.58;nan;27063.19;5108544;28;20184;-70
2023/09/17 04:39:18;;;;;;;1.33;1.23;;;;;;;18.57;nan;26407.31;5090930;28;20200;-70
2023/09/17 04:41:44;;;;;;;1.48;1.13;;;;;;;18.81;nan;26420.53;5104276;28;20227;-71
2023/09/17 04:44:10;;;;;;;1.23;1.13;;;;;;;18.70;nan;27725.81;5091139;28;20182;-70
2023/09/17 04:46:40;;;;;;;1.48;1.30;;;;;;;18.74;nan;28056.38;5090522;28;20247;-71
2023/09/17 04:49:06;;;;;;;1.70;1.60;;;;;;;18.95;nan;29052.78;5090720;28;20208;-71
2023/09/17 04:51:33;;;;;;;1.52;1.42;;;;;;;18.80;nan;29043.88;5098494;28;20199;-71
2023/09/17 04:53:59;;;;;;;1.55;1.45;;;;;;;19.01;nan;31354.97;5083160;28;20195;-70
2023/09/17 04:56:24;;;;;;;1.33;1.23;;;;;;;18.88;nan;32332.47;5098403;28;20193;-70
2023/09/17 04:58:50;;;;;;;0.90;0.90;;;;;;;19.06;nan;34315.72;5099105;28;20262;-71
2023/09/17 05:01:15;;;;;;;1.25;1.02;;;;;;;19.19;nan;36956.97;5089513;28;20173;-70
2023/09/17 05:03:42;;;;;;;1.83;1.63;;;;;;;19.25;nan;39006.38;5091329;28;20184;-70
2023/09/17 05:06:07;;;;;;;1.23;1.13;;;;;;;19.40;nan;41159.88;5106264;28;20188;-70
2023/09/17 05:08:33;;;;;;;0.98;0.98;;;;;;;19.62;nan;44919.94;5098488;28;20172;-69
2023/09/17 05:10:58;;;;;;;1.23;1.13;;;;;;;19.73;nan;44129.34;5098199;28;20256;-70
2023/09/17 05:13:24;;;;;;;1.55;1.45;;;;;;;19.79;nan;44523.91;5106301;28;20640;-70
2023/09/17 05:15:49;;;;;;;2.53;1.65;;;;;;;19.88;nan;46647.84;5092905;28;20230;-70
2023/09/17 05:18:15;;;;;;;1.13;1.02;;;;;;;19.82;nan;47784.13;5090635;28;20182;-70
2023/09/17 05:20:43;;;;;;;1.05;1.00;;;;;;;20.07;nan;48914.25;5090154;28;20189;-70
2023/09/17 05:23:10;;;;;;;1.10;1.10;;;;;;;20.29;nan;50486.44;5090684;28;20325;-70
2023/09/17 05:25:35;;;;;;;1.45;1.35;;;;;;;20.35;nan;51611.31;5097925;28;20178;-70
2023/09/17 05:28:03;;;;;;;1.33;1.25;;;;;;;20.40;nan;49257.09;5098306;28;20180;-70
2023/09/17 05:30:29;;;;;;;0.90;0.90;;;;;;;20.37;nan;47723.97;5086278;28;20169;-70
2023/09/17 05:32:54;;;;;;;1.45;1.35;;;;;;;20.27;nan;45318.19;5096693;28;20180;-70
2023/09/17 05:35:19;;;;;;;1.55;1.45;;;;;;;20.50;nan;47193.34;5099588;28;20627;-71
2023/09/17 05:37:45;;;;;;;2.05;1.95;;;;;;;20.50;nan;45485.31;5102107;28;20170;-70
2023/09/17 05:40:11;;;;;;;1.63;1.23;;;;;;;20.78;nan;47445.03;5094120;28;20181;-71
2023/09/17 05:42:37;;;;;;;1.50;1.40;;;;;;;20.86;nan;49260.53;5092993;28;20173;-72
2023/09/17 05:45:03;;;;;;;2.28;1.75;;;;;;;20.93;nan;53035.16;5094383;28;20193;-73
2023/09/17 05:47:29;;;;;;;2.03;1.35;;;;;;;20.77;nan;51305.03;5083731;28;20182;-72
2023/09/17 05:49:55;;;;;;;1.88;1.48;;;;;;;21.02;nan;50971.19;5092963;28;20212;-71
2023/09/17 05:52:21;;;;;;;0.98;0.98;;;;;;;21.02;nan;52390.63;5093832;28;20169;-71
2023/09/17 05:54:46;;;;;;;2.92;1.90;;;;;;;21.09;nan;53673.03;5115034;27;20227;-71
2023/09/17 05:57:12;;;;;;;1.38;1.27;;;;;;;21.17;nan;54263.91;5101563;28;20571;-71
2023/09/17 05:59:37;;;;;;;1.92;1.75;;;;;;;21.04;nan;53589.81;5102851;28;20230;-71
2023/09/17 06:02:03;;;;;;;4.25;2.13;;;;;;;21.13;nan;54345.94;5103693;28;20276;-72
2023/09/17 06:04:28;;;;;;;1.63;1.52;;;;;;;21.53;nan;55379.22;5093395;28;20173;-72
2023/09/17 06:06:53;;;;;;;1.90;1.52;;;;;;;21.73;nan;56445.66;5092038;28;20186;-72
2023/09/17 06:09:19;;;;;;;1.58;1.15;;;;;;;21.67;nan;56715.13;5099822;28;20288;-73
2023/09/17 06:11:44;;;;;;;1.55;1.45;;;;;;;21.56;nan;57466.97;5104266;28;20224;-72
2023/09/17 06:14:10;;;;;;;1.67;1.50;;;;;;;21.59;nan;57026.63;5107285;28;20683;-71
2023/09/17 06:16:35;;;;;;;1.95;1.75;;;;;;;21.91;nan;57410.16;5096150;28;20258;-72
2023/09/17 06:19:01;;;;;;;2.20;1.92;;;;;;;21.92;nan;58485.03;5105486;28;20172;-71
2023/09/17 06:21:26;;;;;;;1.52;1.42;;;;;;;22.09;nan;58788.88;5100633;28;20177;-71
2023/09/17 06:23:51;;;;;;;2.63;1.63;;;;;;;22.27;nan;58644.03;5091550;28;20215;-72
2023/09/17 06:26:17;;;;;;;2.05;1.35;;;;;;;22.22;nan;59312.22;5080407;28;20565;-72
2023/09/17 06:28:42;;;;;;;1.40;1.27;;;;;;;22.61;nan;59656.78;5093885;28;20181;-72
2023/09/17 06:31:08;;;;;;;3.13;1.65;;;;;;;23.00;nan;60295.09;5100397;28;20176;-71
2023/09/17 06:33:35;;;;;;;2.10;1.77;;;;;;;23.35;nan;60573.78;5093443;28;20188;-72
2023/09/17 06:36:00;;;;;;;2.13;1.90;;;;;;;;;;5092566;28;20209;-71
2023/09/17 06:38:25;;;;;;;0.85;0.85;;;;;;;23.31;nan;60725.69;5091899;28;20181;-73
2023/09/17 06:40:51;;;;;;;1.48;1.38;;;;;;;23.56;nan;60868.38;5100743;28;20173;-71
2023/09/17 06:43:17;;;;;;;2.53;1.20;;;;;;;23.99;nan;61051.09;5105076;28;20208;-72
2023/09/17 06:45:42;;;;;;;1.40;1.30;;;;;;;24.12;nan;61134.09;5094103;28;20613;-71
2023/09/17 06:48:08;;;;;;;1.15;1.15;;;;;;;24.02;nan;61122.28;5108243;28;20229;-71
2023/09/17 06:50:33;;;;;;;1.73;1.63;;;;;;;24.21;nan;61148.88;5114346;28;20180;-71
2023/09/17 06:52:58;;;;;;;2.15;1.10;;;;;;;24.47;nan;61227.69;5113998;28;20231;-71
2023/09/17 06:55:24;;;;;;;1.50;1.40;;;;;;;24.51;nan;61334.06;5113988;28;20196;-72
2023/09/17 06:57:50;;;;;;;1.77;1.67;;;;;;;24.58;nan;61383.75;5114350;28;20646;-71
2023/09/17 07:00:15;;;;;;;2.17;1.90;;;;;;;24.67;nan;61369.78;5114045;28;20177;-70
2023/09/17 07:02:41;;;;;;;2.75;1.40;;;;;;;24.53;nan;61610.63;5114047;28;20179;-72
2023/09/17 07:05:10;;;;;;;1.45;1.35;;;;;;;24.52;nan;61486.69;5113915;28;20180;-71
2023/09/17 07:07:35;;;;;;;1.85;1.70;;;;;;;24.57;nan;61523.69;5095509;28;20219;-71
2023/09/17 07:10:02;;;;;;;3.13;1.35;;;;;;;24.94;nan;61528.31;5108188;28;20592;-71
2023/09/17 07:12:27;;;;;;;1.48;1.38;;;;;;;24.57;nan;61581.16;5092989;28;20160;-72
2023/09/17 07:14:53;;;;;;;2.08;1.92;;;;;;;24.37;nan;61501.13;5103224;28;20204;-72
2023/09/17 07:17:18;;;;;;;1.50;1.40;;;;;;;24.56;nan;61386.72;5113795;28;20164;-71
2023/09/17 07:19:43;;;;;;;2.90;1.45;;;;;;;24.84;nan;61571.34;5113448;28;20173;-70
2023/09/17 07:22:14;;;;;;;3.40;2.00;;;;;;;25.04;nan;61526.53;5113347;28;20489;-71
2023/09/17 07:24:41;;;;;;;1.02;1.00;;;;;;;25.04;nan;61654.66;5113481;28;20620;-71
2023/09/17 07:27:06;;;;;;;2.97;1.83;;;;;;;24.89;nan;61640.31;5112751;28;20225;-73
2023/09/17 07:29:32;;;;;;;1.20;1.10;;;;;;;24.72;nan;61694.25;5113380;28;20602;-72
2023/09/17 07:31:57;;;;;;;1.33;1.23;;;;;;;24.25;nan;61565.34;5093120;28;20173;-72
2023/09/17 07:34:24;;;;;;;1.40;1.30;;;;;;;23.94;nan;61427.06;5091719;28;20260;-72
2023/09/17 07:36:50;;;;;;;1.52;1.42;;;;;;;23.82;nan;61355.53;5091990;28;20593;-72
2023/09/17 07:39:15;;;;;;;2.08;1.88;;;;;;;23.94;nan;61395.19;5092855;28;20644;-73
2023/09/17 07:41:41;;;;;;;2.70;1.83;;;;;;;23.95;nan;61386.44;5092499;28;20610;-72
2023/09/17 07:44:07;;;;;;;1.95;1.80;;;;;;;23.91;nan;61379.28;5096026;28;20770;-72
2023/09/17 07:46:32;;;;;;;3.08;1.98;;;;;;;24.37;nan;61511.56;5098214;28;20215;-72
2023/09/17 07:49:00;;;;;;;1.83;1.67;;;;;;;24.15;nan;61473.66;5104723;28;20209;-72
2023/09/17 07:51:25;;;;;;;2.88;2.17;;;;;;;24.35;nan;61466.97;5092273;28;20178;-71
2023/09/17 07:53:51;;;;;;;3.13;1.75;;;;;;;24.56;nan;61483.38;5094547;28;20246;-71
2023/09/17 07:56:17;;;;;;;5.20;2.83;;;;;;;24.33;nan;61548.25;5099248;28;20200;-71
2023/09/17 07:58:42;;;;;;;2.88;1.85;;;;;;;24.28;nan;61472.69;5090260;28;20640;-72
2023/09/17 08:01:07;;;;;;;1.50;1.42;;;;;;;24.30;nan;61425.31;5090932;28;20202;-72
2023/09/17 08:03:33;;;;;;;3.60;2.22;;;;;;;24.77;nan;61537.88;5099564;28;20263;-70
2023/09/17 08:05:59;;;;;;;2.28;2.13;;;;;;;25.11;nan;61635.28;5092350;28;20250;-71
2023/09/17 08:08:26;;;;;;;1.77;1.67;;;;;;;24.82;nan;61597.84;5091289;28;20188;-71
2023/09/17 08:10:52;;;;;;;3.42;2.80;;;;;;;24.94;nan;61585.25;5090686;28;20713;-72
2023/09/17 08:13:17;;;;;;;2.13;1.92;;;;;;;25.03;nan;61843.81;5090825;28;20268;-72
2023/09/17 08:15:43;;;;;;;2.05;1.85;;;;;;;24.65;nan;61786.19;5091289;28;20199;-72
2023/09/17 08:18:09;;;;;;;2.30;1.67;;;;;;;24.41;nan;61701.53;5090848;28;20185;-72
2023/09/17 08:20:34;;;;;;;2.20;2.00;;;;;;;24.50;nan;61698.66;5090888;28;20173;-71
2023/09/17 08:22:59;;;;;;;1.83;1.63;;;;;;;24.85;nan;61680.19;5089958;28;20326;-72
2023/09/17 08:25:26;;;;;;;1.95;1.80;;;;;;;25.02;nan;61777.31;5090529;28;20190;-71
2023/09/17 08:27:53;;;;;;;2.20;1.58;;;;;;;25.04;nan;61894.66;5109611;27;20637;-71
2023/09/17 08:30:20;;;;;;;1.27;1.17;;;;;;;25.33;nan;61911.84;5109794;27;20290;-71
2023/09/17 08:32:45;;;;;;;1.50;1.40;;;;;;;25.81;nan;62522.91;5090411;28;20169;-71
2023/09/17 08:35:14;;;;;;;2.40;1.63;;;;;;;25.99;nan;62288.91;5090766;28;20197;-69
2023/09/17 08:37:43;;;;;;;4.93;2.22;;;;;;;26.37;nan;62395.72;5090866;28;20184;-70
2023/09/17 08:40:14;;;;;;;1.13;1.13;;;;;;;26.41;nan;62410.19;5092889;28;20208;-70
2023/09/17 08:42:43;;;;;;;1.40;1.30;;;;;;;25.84;nan;62343.63;5104014;28;20317;-69
2023/09/17 08:45:10;;;;;;;1.27;1.17;;;;;;;25.63;nan;62436.88;5089813;28;20173;-70
2023/09/17 08:47:37;;;;;;;1.42;1.33;;;;;;;25.20;nan;62281.59;5088235;28;20256;-71
2023/09/17 08:50:04;;;;;;;2.78;1.55;;;;;;;25.12;nan;62264.06;5087957;28;20254;-71
2023/09/17 08:52:34;;;;;;;2.08;1.55;;;;;;;24.92;nan;62344.38;5087019;28;20177;-73
2023/09/17 08:55:01;;;;;;;1.92;1.55;;;;;;;24.76;nan;62213.09;5087561;28;20207;-73
2023/09/17 08:57:30;;;;;;;2.25;2.00;;;;;;;24.89;nan;62223.28;5088625;28;20185;-72
2023/09/17 09:00:15;;;;;;;2.05;1.80;;;;;;;25.18;nan;62333.69;5088838;28;20177;-74
2023/09/17 09:02:49;;;;;;;2.80;1.60;;;;;;;25.51;nan;62340.53;5090795;28;20185;-74
2023/09/17 09:05:17;;;;;;;1.52;1.40;;;;;;;25.48;nan;62297.28;5090261;28;20268;-73
2023/09/17 09:07:47;;;;;;;2.00;1.67;;;;;;;25.28;nan;62295.97;5095150;28;20169;-72
2023/09/17 09:10:14;;;;;;;2.47;1.65;;;;;;;25.06;nan;62281.34;5094458;28;20224;-73
2023/09/17 09:12:42;;;;;;;3.45;1.92;;;;;;;24.77;nan;62344.94;5094253;28;20188;-73
2023/09/17 09:15:10;;;;;;;1.10;1.00;;;;;;;24.68;nan;62334.66;5094156;28;20682;-73
2023/09/17 09:17:35;;;;;;;2.92;1.60;;;;;;;25.00;nan;62295.41;5093569;28;20201;-72
2023/09/17 09:20:04;;;;;;;2.03;1.77;;;;;;;25.01;nan;62270.41;5093158;28;20668;-74
2023/09/17 09:22:30;;;;;;;1.75;1.25;;;;;;;25.26;nan;62285.84;5093188;28;20169;-72
2023/09/17 09:24:55;;;;;;;2.20;1.52;;;;;;;25.61;nan;62369.16;5094113;28;20184;-72
2023/09/17 09:27:21;;;;;;;1.75;1.52;;;;;;;25.87;nan;62495.75;5095281;28;20181;-73
2023/09/17 09:29:47;;;;;;;2.90;1.42;;;;;;;26.24;nan;62407.06;5094592;28;20188;-72
2023/09/17 09:32:13;;;;;;;2.60;1.77;;;;;;;26.20;nan;62464.81;5093430;28;20262;-73
2023/09/17 09:34:43;;;;;;;2.10;1.90;;;;;;;25.87;nan;62627.25;5094811;28;20189;-72
2023/09/17 09:37:10;;;;;;;4.13;1.90;;;;;;;26.15;nan;62474.81;5094020;28;20177;-74
2023/09/17 09:39:41;;;;;;;6.55;3.28;;;;;;;25.84;nan;62505.41;5094306;28;20173;-72
2023/09/17 09:42:11;;;;;;;3.67;2.47;;;;;;;25.98;nan;62330.22;5093901;28;20188;-71
2023/09/17 09:44:37;;;;;;;2.17;2.03;;;;;;;26.17;nan;62438.34;5093775;28;20712;-72
2023/09/17 09:47:03;;;;;;;1.48;1.38;;;;;;;26.09;nan;62450.16;5093216;28;20265;-71
2023/09/17 09:49:28;;;;;;;2.17;1.90;;;;;;;26.32;nan;62436.59;5093833;28;20662;-73
2023/09/17 09:51:57;;;;;;;2.85;1.85;;;;;;;26.38;nan;62522.09;5093092;28;20628;-71
2023/09/17 09:54:23;;;;;;;1.50;1.38;;;;;;;26.37;nan;62684.03;5093441;28;20185;-70
2023/09/17 09:56:49;;;;;;;3.75;2.15;;;;;;;26.16;nan;62429.38;5094083;28;20257;-73
2023/09/17 09:59:15;;;;;;;1.40;1.30;;;;;;;25.63;nan;62340.59;5093512;28;20219;-72
2023/09/17 10:01:41;;;;;;;1.45;1.20;;;;;;;25.48;nan;62462.72;5115751;27;20289;-71
2023/09/17 10:04:11;;;;;;;1.20;1.10;;;;;;;25.58;nan;62515.50;5093465;28;20177;-73
2023/09/17 10:06:40;;;;;;;1.85;1.70;;;;;;;25.78;nan;62354.53;5094432;28;20253;-72
2023/09/17 10:09:06;;;;;;;1.67;1.58;;;;;;;26.22;nan;62470.28;5093369;28;20268;-72
2023/09/17 10:11:33;;;;;;;0.90;0.90;;;;;;;26.37;nan;62507.84;5093513;28;20233;-72
2023/09/17 10:14:03;;;;;;;1.48;1.33;;;;;;;26.29;nan;62525.47;5094046;28;20185;-72
2023/09/17 10:16:30;;;;;;;3.42;1.95;;;;;;;26.27;nan;62519.97;5092372;28;20254;-71
2023/09/17 10:18:56;;;;;;;2.25;2.08;;;;;;;26.35;nan;62592.06;5101802;28;20192;-73
2023/09/17 10:21:25;;;;;;;2.17;1.88;;;;;;;26.55;nan;62719.25;5093558;28;20173;-73
2023/09/17 10:23:53;;;;;;;3.13;1.40;;;;;;;26.74;nan;62588.94;5097552;28;20609;-71
2023/09/17 10:26:22;;;;;;;1.33;1.20;;;;;;;26.28;nan;62597.69;5083121;28;20562;-74
2023/09/17 10:28:48;;;;;;;1.98;1.40;;;;;;;26.60;nan;62610.19;5094032;28;20173;-73
2023/09/17 10:31:15;;;;;;;1.48;1.20;;;;;;;26.78;nan;62727.84;5110206;28;20790;-74
2023/09/17 10:33:44;;;;;;;2.63;1.42;;;;;;;26.94;nan;62627.03;5092891;28;20238;-73
2023/09/17 10:36:11;;;;;;;1.45;1.35;;;;;;;26.69;nan;62528.13;5093161;28;20216;-73
2023/09/17 10:38:39;;;;;;;4.65;1.75;;;;;;;26.56;nan;62526.38;5093253;28;20170;-73
2023/09/17 10:41:05;;;;;;;1.20;1.10;;;;;;;26.31;nan;62598.50;5093313;28;20299;-71
2023/09/17 10:43:37;;;;;;;1.52;1.10;;;;;;;26.47;nan;62495.13;5098413;28;20176;-72
2023/09/17 10:46:06;;;;;;;1.30;1.20;;;;;;;26.89;nan;62558.91;5103039;28;20188;-73
2023/09/17 10:48:33;;;;;;;2.13;1.52;;;;;;;26.41;nan;62441.66;5090211;28;20268;-71
2023/09/17 10:50:59;;;;;;;1.70;1.60;;;;;;;26.49;nan;62597.03;5114312;27;20633;-74
2023/09/17 10:53:26;;;;;;;1.52;1.42;;;;;;;26.25;nan;62539.25;5092351;28;20188;-73
2023/09/17 10:55:59;;;;;;;1.98;1.50;;;;;;;26.36;nan;62599.00;5089012;28;20760;-71
2023/09/17 10:58:28;;;;;;;1.73;1.52;;;;;;;26.09;nan;62568.06;5092163;28;20181;-74
2023/09/17 11:00:56;;;;;;;3.08;1.90;;;;;;;26.37;nan;62608.00;5077025;28;20614;-73
2023/09/17 11:03:23;;;;;;;1.73;1.45;;;;;;;26.53;nan;62497.31;5092104;28;20177;-72
2023/09/17 11:05:53;;;;;;;9.07;1.73;;;;;;;26.53;nan;62484.22;5092757;28;20520;-73
2023/09/17 11:08:19;;;;;;;1.35;1.25;;;;;;;26.70;nan;62495.19;5091820;28;20737;-71
2023/09/17 11:10:45;;;;;;;3.15;1.75;;;;;;;;;;5092480;28;20217;-73
2023/09/17 11:13:14;;;;;;;1.65;1.50;;;;;;;26.64;nan;62608.94;5091296;28;20181;-73
2023/09/17 11:15:42;;;;;;;2.92;2.10;;;;;;;26.55;nan;62603.88;5090294;28;20209;-72
2023/09/17 11:18:09;;;;;;;1.52;1.38;;;;;;;26.52;nan;62498.22;5091750;28;20177;-74
2023/09/17 11:20:38;;;;;;;1.67;1.45;;;;;;;26.76;nan;62633.19;5092157;28;20177;-73
2023/09/17 11:23:04;;;;;;;1.90;1.27;;;;;;;26.87;nan;62550.81;5091899;28;20266;-73
2023/09/17 11:25:36;;;;;;;1.67;1.55;;;;;;;26.93;nan;62571.38;5091996;28;20308;-72
2023/09/17 11:28:13;;;;;;;2.63;1.67;;;;;;;27.08;nan;62696.13;5091073;28;20235;-73
2023/09/17 11:30:58;;;;;;;1.10;1.00;;;;;;;27.34;nan;62722.16;5089786;28;20180;-72
2023/09/17 11:33:25;;;;;;;1.42;1.27;;;;;;;27.54;nan;62661.06;5091344;28;20918;-74
2023/09/17 11:35:51;;;;;;;2.15;1.42;;;;;;;27.57;nan;62711.78;5091939;28;20200;-74
2023/09/17 11:38:23;;;;;;;1.65;1.33;;;;;;;27.56;nan;62784.19;5091552;28;20200;-73
2023/09/17 11:41:21;;;;;;;3.83;1.45;;;;;;;27.55;nan;62725.84;5092090;28;20189;-73
2023/09/17 11:43:51;;;;;;;1.23;0.98;;;;;;;25.31;nan;62474.69;5080217;28;20552;-73
2023/09/17 11:46:17;;;;;;;1.48;1.15;;;;;;;27.25;nan;62565.41;5077740;28;20205;-73
2023/09/17 11:48:44;;;;;;;1.35;1.25;;;;;;;26.64;nan;62473.16;5091342;28;20181;-75
2023/09/17 11:51:28;;;;;;;1.25;1.13;;;;;;;26.90;nan;62622.44;5090948;28;20181;-73